KNIP/NIP METAR and TAF weather

Enter ICAO airport designator
Station Type Date Time Source
KNIP METAR 2022/09/26 09:53 UTC NOAA

KNIP 260953Z 25005KT 10SM FEW250 23/20 A2991 RMK AO2 SLP122 T02280200


Station Type Date Time Source
KNIP Decoded METAR 2022/09/26 09:53 UTC NOAA

JACKSONVILLE NAVAL AIR STN, FL, United States (KNIP) 30-14N 81-40W 8M
Sep 26, 2022 - 05:53 AM EDT / 2022.09.26 0953 UTC
Wind: from the WSW (250 degrees) at 6 MPH (5 KT):0
Visibility: 10 mile(s):0
Sky conditions: mostly clear
Temperature: 73.0 F (22.8 C)
Dew Point: 68.0 F (20.0 C)
Relative Humidity: 84%
Pressure (altimeter): 29.91 in. Hg (1012 hPa)
ob: KNIP 260953Z 25005KT 10SM FEW250 23/20 A2991 RMK AO2 SLP122 T02280200
cycle: 10

Station Type Date Time Source
KNIP TAF 2022/09/26 07:03 UTC NOAA

TAF KNIP 2607/2707 VRB06KT 9999 FEW025 SCT050 SCT250 QNH2979INS
BECMG 2623/2701 14009KT 9999 FEW025 SCT050 SCT250 QNH2983INS T22/2612Z T32/2618Z FN00247

Example: see airport list